sensor_id;sensor_type;location;lat;lon;timestamp;temperature;humidity
79760;DHT22;70512;42.122;24.732;2023-07-31T00:01:37;25.80;42.00
79760;DHT22;70512;42.122;24.732;2023-07-31T00:04:04;25.80;42.00
79760;DHT22;70512;42.122;24.732;2023-07-31T00:06:31;25.90;42.10
79760;DHT22;70512;42.122;24.732;2023-07-31T00:08:58;25.90;42.00
79760;DHT22;70512;42.122;24.732;2023-07-31T00:11:25;25.90;41.90
79760;DHT22;70512;42.122;24.732;2023-07-31T00:13:52;25.90;41.90
79760;DHT22;70512;42.122;24.732;2023-07-31T00:16:20;25.80;41.80
79760;DHT22;70512;42.122;24.732;2023-07-31T00:18:46;25.90;41.90
79760;DHT22;70512;42.122;24.732;2023-07-31T00:21:13;25.90;42.00
79760;DHT22;70512;42.122;24.732;2023-07-31T00:23:40;25.80;42.10
79760;DHT22;70512;42.122;24.732;2023-07-31T00:26:07;25.80;42.20
79760;DHT22;70512;42.122;24.732;2023-07-31T00:28:34;25.80;42.20
79760;DHT22;70512;42.122;24.732;2023-07-31T00:31:01;25.80;42.30
79760;DHT22;70512;42.122;24.732;2023-07-31T00:33:30;25.80;42.40
79760;DHT22;70512;42.122;24.732;2023-07-31T00:35:57;25.80;42.50
79760;DHT22;70512;42.122;24.732;2023-07-31T00:38:24;25.80;42.50
79760;DHT22;70512;42.122;24.732;2023-07-31T00:40:51;25.70;42.50
79760;DHT22;70512;42.122;24.732;2023-07-31T00:43:18;25.80;42.60
79760;DHT22;70512;42.122;24.732;2023-07-31T00:45:45;25.80;42.50
79760;DHT22;70512;42.122;24.732;2023-07-31T00:48:12;25.80;42.40
79760;DHT22;70512;42.122;24.732;2023-07-31T00:50:39;25.80;42.40
79760;DHT22;70512;42.122;24.732;2023-07-31T00:53:07;25.80;42.30
79760;DHT22;70512;42.122;24.732;2023-07-31T00:55:33;25.80;42.40
79760;DHT22;70512;42.122;24.732;2023-07-31T00:58:01;25.90;42.30
79760;DHT22;70512;42.122;24.732;2023-07-31T01:00:28;25.80;42.30
79760;DHT22;70512;42.122;24.732;2023-07-31T01:02:54;25.80;42.40
79760;DHT22;70512;42.122;24.732;2023-07-31T01:05:29;25.80;42.50
79760;DHT22;70512;42.122;24.732;2023-07-31T01:07:56;25.80;42.60
79760;DHT22;70512;42.122;24.732;2023-07-31T01:10:20;25.80;42.60
79760;DHT22;70512;42.122;24.732;2023-07-31T01:12:47;25.70;42.60
79760;DHT22;70512;42.122;24.732;2023-07-31T01:15:14;25.70;42.80
79760;DHT22;70512;42.122;24.732;2023-07-31T01:17:43;25.60;42.90
79760;DHT22;70512;42.122;24.732;2023-07-31T01:20:17;25.60;43.00
79760;DHT22;70512;42.122;24.732;2023-07-31T01:27:51;25.60;43.20
79760;DHT22;70512;42.122;24.732;2023-07-31T01:30:16;25.50;43.60
79760;DHT22;70512;42.122;24.732;2023-07-31T01:32:45;25.40;43.90
79760;DHT22;70512;42.122;24.732;2023-07-31T01:35:13;25.30;44.10
79760;DHT22;70512;42.122;24.732;2023-07-31T01:37:40;25.20;44.40
79760;DHT22;70512;42.122;24.732;2023-07-31T01:40:08;25.10;44.50
79760;DHT22;70512;42.122;24.732;2023-07-31T01:42:35;25.00;44.70
79760;DHT22;70512;42.122;24.732;2023-07-31T01:45:02;25.00;44.90
79760;DHT22;70512;42.122;24.732;2023-07-31T01:47:29;24.90;45.40
79760;DHT22;70512;42.122;24.732;2023-07-31T01:49:56;24.90;44.90
79760;DHT22;70512;42.122;24.732;2023-07-31T01:52:23;24.90;45.20
79760;DHT22;70512;42.122;24.732;2023-07-31T01:54:49;24.90;45.10
79760;DHT22;70512;42.122;24.732;2023-07-31T01:57:16;24.80;44.90
79760;DHT22;70512;42.122;24.732;2023-07-31T01:59:43;24.70;44.90
79760;DHT22;70512;42.122;24.732;2023-07-31T02:02:10;24.80;45.20
79760;DHT22;70512;42.122;24.732;2023-07-31T02:04:37;24.70;45.30
79760;DHT22;70512;42.122;24.732;2023-07-31T02:07:05;24.70;45.30
79760;DHT22;70512;42.122;24.732;2023-07-31T02:09:32;24.70;45.30
79760;DHT22;70512;42.122;24.732;2023-07-31T02:11:59;24.70;45.40
79760;DHT22;70512;42.122;24.732;2023-07-31T02:14:26;24.70;45.20
79760;DHT22;70512;42.122;24.732;2023-07-31T02:16:53;24.70;45.00
79760;DHT22;70512;42.122;24.732;2023-07-31T02:19:20;24.60;45.20
79760;DHT22;70512;42.122;24.732;2023-07-31T02:21:47;24.70;45.20
79760;DHT22;70512;42.122;24.732;2023-07-31T02:24:14;24.60;45.60
79760;DHT22;70512;42.122;24.732;2023-07-31T02:26:41;24.60;46.10
79760;DHT22;70512;42.122;24.732;2023-07-31T02:29:08;24.60;46.40
79760;DHT22;70512;42.122;24.732;2023-07-31T02:31:35;24.60;47.10
79760;DHT22;70512;42.122;24.732;2023-07-31T02:34:02;24.60;47.60
79760;DHT22;70512;42.122;24.732;2023-07-31T02:36:29;24.60;48.50
79760;DHT22;70512;42.122;24.732;2023-07-31T02:38:56;24.60;49.20
79760;DHT22;70512;42.122;24.732;2023-07-31T02:41:23;24.60;50.80
79760;DHT22;70512;42.122;24.732;2023-07-31T02:43:49;24.60;52.10
79760;DHT22;70512;42.122;24.732;2023-07-31T02:46:17;24.60;53.00
79760;DHT22;70512;42.122;24.732;2023-07-31T02:48:44;24.60;52.90
79760;DHT22;70512;42.122;24.732;2023-07-31T02:51:11;24.60;53.40
79760;DHT22;70512;42.122;24.732;2023-07-31T02:53:38;24.60;53.70
79760;DHT22;70512;42.122;24.732;2023-07-31T02:56:05;24.60;54.10
79760;DHT22;70512;42.122;24.732;2023-07-31T02:58:32;24.60;54.50
79760;DHT22;70512;42.122;24.732;2023-07-31T03:00:59;24.60;54.70
79760;DHT22;70512;42.122;24.732;2023-07-31T03:03:26;24.60;55.10
79760;DHT22;70512;42.122;24.732;2023-07-31T03:05:52;24.60;55.70
79760;DHT22;70512;42.122;24.732;2023-07-31T03:08:20;24.60;55.80
79760;DHT22;70512;42.122;24.732;2023-07-31T03:10:47;24.60;55.70
79760;DHT22;70512;42.122;24.732;2023-07-31T03:13:13;24.60;56.20
79760;DHT22;70512;42.122;24.732;2023-07-31T03:15:43;24.60;56.10
79760;DHT22;70512;42.122;24.732;2023-07-31T03:18:10;24.50;57.60
79760;DHT22;70512;42.122;24.732;2023-07-31T03:20:41;24.30;59.80
79760;DHT22;70512;42.122;24.732;2023-07-31T03:23:06;24.20;62.50
79760;DHT22;70512;42.122;24.732;2023-07-31T03:25:33;24.10;64.20
79760;DHT22;70512;42.122;24.732;2023-07-31T03:28:00;24.00;65.90
79760;DHT22;70512;42.122;24.732;2023-07-31T03:30:26;23.80;67.30
79760;DHT22;70512;42.122;24.732;2023-07-31T03:32:53;23.70;68.50
79760;DHT22;70512;42.122;24.732;2023-07-31T03:35:20;23.60;70.30
79760;DHT22;70512;42.122;24.732;2023-07-31T03:37:47;23.60;70.10
79760;DHT22;70512;42.122;24.732;2023-07-31T03:40:14;23.50;70.90
79760;DHT22;70512;42.122;24.732;2023-07-31T03:42:41;23.40;71.10
79760;DHT22;70512;42.122;24.732;2023-07-31T03:45:08;23.40;71.60
79760;DHT22;70512;42.122;24.732;2023-07-31T03:47:36;23.40;70.90
79760;DHT22;70512;42.122;24.732;2023-07-31T03:50:03;23.30;71.70
79760;DHT22;70512;42.122;24.732;2023-07-31T03:52:30;23.10;73.50
79760;DHT22;70512;42.122;24.732;2023-07-31T03:54:57;22.80;75.00
79760;DHT22;70512;42.122;24.732;2023-07-31T03:57:23;22.40;79.60
79760;DHT22;70512;42.122;24.732;2023-07-31T03:59:50;21.90;80.70
79760;DHT22;70512;42.122;24.732;2023-07-31T04:02:17;21.60;81.30
79760;DHT22;70512;42.122;24.732;2023-07-31T04:04:45;21.50;81.30
79760;DHT22;70512;42.122;24.732;2023-07-31T04:07:11;21.40;81.30
79760;DHT22;70512;42.122;24.732;2023-07-31T04:09:38;21.50;82.50
79760;DHT22;70512;42.122;24.732;2023-07-31T04:12:06;21.60;83.40
79760;DHT22;70512;42.122;24.732;2023-07-31T04:14:33;21.70;82.60
79760;DHT22;70512;42.122;24.732;2023-07-31T04:17:00;21.70;82.80
79760;DHT22;70512;42.122;24.732;2023-07-31T04:19:27;21.90;82.00
79760;DHT22;70512;42.122;24.732;2023-07-31T04:21:53;21.90;81.00
79760;DHT22;70512;42.122;24.732;2023-07-31T04:24:20;22.00;80.30
79760;DHT22;70512;42.122;24.732;2023-07-31T04:26:54;22.10;80.10
79760;DHT22;70512;42.122;24.732;2023-07-31T04:29:17;22.20;79.20
79760;DHT22;70512;42.122;24.732;2023-07-31T04:31:44;22.30;78.60
79760;DHT22;70512;42.122;24.732;2023-07-31T04:34:12;22.40;78.30
79760;DHT22;70512;42.122;24.732;2023-07-31T04:36:39;22.50;78.10
79760;DHT22;70512;42.122;24.732;2023-07-31T04:39:06;22.50;76.90
79760;DHT22;70512;42.122;24.732;2023-07-31T04:41:34;22.60;75.40
79760;DHT22;70512;42.122;24.732;2023-07-31T04:44:01;22.60;74.70
79760;DHT22;70512;42.122;24.732;2023-07-31T04:46:29;22.70;74.50
79760;DHT22;70512;42.122;24.732;2023-07-31T04:48:57;22.80;73.30
79760;DHT22;70512;42.122;24.732;2023-07-31T04:51:23;22.90;72.70
79760;DHT22;70512;42.122;24.732;2023-07-31T04:53:51;23.10;72.20
79760;DHT22;70512;42.122;24.732;2023-07-31T04:56:18;23.10;70.90
79760;DHT22;70512;42.122;24.732;2023-07-31T04:58:45;23.20;71.10
79760;DHT22;70512;42.122;24.732;2023-07-31T05:01:12;23.30;70.90
79760;DHT22;70512;42.122;24.732;2023-07-31T05:03:38;23.40;69.40
79760;DHT22;70512;42.122;24.732;2023-07-31T05:06:05;23.40;69.50
79760;DHT22;70512;42.122;24.732;2023-07-31T05:08:32;23.50;69.30
79760;DHT22;70512;42.122;24.732;2023-07-31T05:10:59;23.50;69.50
79760;DHT22;70512;42.122;24.732;2023-07-31T05:13:26;23.60;69.30
79760;DHT22;70512;42.122;24.732;2023-07-31T05:15:53;23.70;69.00
79760;DHT22;70512;42.122;24.732;2023-07-31T05:18:20;23.70;69.20
79760;DHT22;70512;42.122;24.732;2023-07-31T05:20:47;23.80;69.00
79760;DHT22;70512;42.122;24.732;2023-07-31T05:23:14;23.70;67.50
79760;DHT22;70512;42.122;24.732;2023-07-31T05:25:41;23.70;68.40
79760;DHT22;70512;42.122;24.732;2023-07-31T05:28:08;23.80;67.50
79760;DHT22;70512;42.122;24.732;2023-07-31T05:30:35;23.80;66.40
79760;DHT22;70512;42.122;24.732;2023-07-31T05:33:02;23.80;66.10
79760;DHT22;70512;42.122;24.732;2023-07-31T05:35:29;23.80;65.90
79760;DHT22;70512;42.122;24.732;2023-07-31T05:37:55;23.80;65.90
79760;DHT22;70512;42.122;24.732;2023-07-31T05:40:22;23.80;65.80
79760;DHT22;70512;42.122;24.732;2023-07-31T05:42:49;23.80;65.60
79760;DHT22;70512;42.122;24.732;2023-07-31T05:45:16;23.80;65.80
79760;DHT22;70512;42.122;24.732;2023-07-31T05:47:43;23.80;65.80
79760;DHT22;70512;42.122;24.732;2023-07-31T05:50:10;23.70;66.00
79760;DHT22;70512;42.122;24.732;2023-07-31T05:52:37;23.80;66.30
79760;DHT22;70512;42.122;24.732;2023-07-31T05:55:04;23.80;66.20
79760;DHT22;70512;42.122;24.732;2023-07-31T05:57:31;23.80;65.80
79760;DHT22;70512;42.122;24.732;2023-07-31T05:59:58;24.00;66.10
79760;DHT22;70512;42.122;24.732;2023-07-31T06:02:25;24.10;66.00
79760;DHT22;70512;42.122;24.732;2023-07-31T06:04:52;24.30;65.70
79760;DHT22;70512;42.122;24.732;2023-07-31T06:07:19;24.30;64.70
79760;DHT22;70512;42.122;24.732;2023-07-31T06:09:46;24.50;63.50
79760;DHT22;70512;42.122;24.732;2023-07-31T06:12:13;24.60;62.70
79760;DHT22;70512;42.122;24.732;2023-07-31T06:14:42;24.70;61.80
79760;DHT22;70512;42.122;24.732;2023-07-31T06:17:08;24.80;61.70
79760;DHT22;70512;42.122;24.732;2023-07-31T06:19:35;24.90;60.10
79760;DHT22;70512;42.122;24.732;2023-07-31T06:22:03;25.00;59.90
79760;DHT22;70512;42.122;24.732;2023-07-31T06:24:30;25.00;60.30
79760;DHT22;70512;42.122;24.732;2023-07-31T06:26:56;25.10;60.10
79760;DHT22;70512;42.122;24.732;2023-07-31T06:29:23;25.20;59.90
79760;DHT22;70512;42.122;24.732;2023-07-31T06:31:50;25.30;59.90
79760;DHT22;70512;42.122;24.732;2023-07-31T06:34:17;25.50;59.70
79760;DHT22;70512;42.122;24.732;2023-07-31T06:36:44;25.50;59.40
79760;DHT22;70512;42.122;24.732;2023-07-31T06:39:11;25.50;59.80
79760;DHT22;70512;42.122;24.732;2023-07-31T06:41:39;25.60;59.70
79760;DHT22;70512;42.122;24.732;2023-07-31T06:44:06;25.70;59.50
79760;DHT22;70512;42.122;24.732;2023-07-31T06:46:33;25.70;58.70
79760;DHT22;70512;42.122;24.732;2023-07-31T06:49:00;25.80;58.80
79760;DHT22;70512;42.122;24.732;2023-07-31T06:51:27;25.90;58.80
79760;DHT22;70512;42.122;24.732;2023-07-31T06:53:54;26.00;58.50
79760;DHT22;70512;42.122;24.732;2023-07-31T06:56:20;26.20;58.50
79760;DHT22;70512;42.122;24.732;2023-07-31T06:58:47;26.20;57.00
79760;DHT22;70512;42.122;24.732;2023-07-31T07:01:14;26.30;57.40
79760;DHT22;70512;42.122;24.732;2023-07-31T07:03:41;26.30;57.00
79760;DHT22;70512;42.122;24.732;2023-07-31T07:06:08;26.40;56.70
79760;DHT22;70512;42.122;24.732;2023-07-31T07:08:35;26.60;56.30
79760;DHT22;70512;42.122;24.732;2023-07-31T07:11:02;26.70;56.00
79760;DHT22;70512;42.122;24.732;2023-07-31T07:13:29;26.70;55.50
79760;DHT22;70512;42.122;24.732;2023-07-31T07:15:56;26.80;56.00
79760;DHT22;70512;42.122;24.732;2023-07-31T07:18:23;26.90;55.40
79760;DHT22;70512;42.122;24.732;2023-07-31T07:20:50;26.90;55.40
79760;DHT22;70512;42.122;24.732;2023-07-31T07:23:18;26.90;55.60
79760;DHT22;70512;42.122;24.732;2023-07-31T07:25:45;26.90;55.50
79760;DHT22;70512;42.122;24.732;2023-07-31T07:28:13;27.00;55.70
79760;DHT22;70512;42.122;24.732;2023-07-31T07:30:42;27.00;55.70
79760;DHT22;70512;42.122;24.732;2023-07-31T07:33:10;27.10;55.30
79760;DHT22;70512;42.122;24.732;2023-07-31T07:35:38;27.20;55.20
79760;DHT22;70512;42.122;24.732;2023-07-31T07:38:05;27.30;55.30
79760;DHT22;70512;42.122;24.732;2023-07-31T07:40:32;27.30;54.90
79760;DHT22;70512;42.122;24.732;2023-07-31T07:42:59;27.50;54.90
79760;DHT22;70512;42.122;24.732;2023-07-31T07:45:26;27.50;53.80
79760;DHT22;70512;42.122;24.732;2023-07-31T07:47:53;27.70;54.00
79760;DHT22;70512;42.122;24.732;2023-07-31T07:50:20;27.60;54.00
79760;DHT22;70512;42.122;24.732;2023-07-31T07:52:47;27.70;54.50
79760;DHT22;70512;42.122;24.732;2023-07-31T07:55:14;27.70;53.30
79760;DHT22;70512;42.122;24.732;2023-07-31T07:57:41;27.70;52.80
79760;DHT22;70512;42.122;24.732;2023-07-31T08:00:09;27.80;53.00
79760;DHT22;70512;42.122;24.732;2023-07-31T08:02:36;28.00;52.70
79760;DHT22;70512;42.122;24.732;2023-07-31T08:05:04;28.10;52.60
79760;DHT22;70512;42.122;24.732;2023-07-31T08:07:31;28.20;52.40
79760;DHT22;70512;42.122;24.732;2023-07-31T08:09:58;28.30;51.40
79760;DHT22;70512;42.122;24.732;2023-07-31T08:12:24;28.20;51.60
79760;DHT22;70512;42.122;24.732;2023-07-31T08:14:51;28.20;51.40
79760;DHT22;70512;42.122;24.732;2023-07-31T08:17:18;28.30;51.20
79760;DHT22;70512;42.122;24.732;2023-07-31T08:19:45;28.40;50.10
79760;DHT22;70512;42.122;24.732;2023-07-31T08:22:13;28.60;50.20
79760;DHT22;70512;42.122;24.732;2023-07-31T08:24:40;28.70;50.20
79760;DHT22;70512;42.122;24.732;2023-07-31T08:27:07;29.10;49.80
79760;DHT22;70512;42.122;24.732;2023-07-31T08:29:34;29.30;48.90
79760;DHT22;70512;42.122;24.732;2023-07-31T08:32:01;29.50;49.10
79760;DHT22;70512;42.122;24.732;2023-07-31T08:34:29;29.50;48.50
79760;DHT22;70512;42.122;24.732;2023-07-31T08:36:56;29.30;47.80
79760;DHT22;70512;42.122;24.732;2023-07-31T08:39:23;29.10;47.80
79760;DHT22;70512;42.122;24.732;2023-07-31T08:41:49;29.00;48.40
79760;DHT22;70512;42.122;24.732;2023-07-31T08:44:17;28.90;48.20
79760;DHT22;70512;42.122;24.732;2023-07-31T08:46:44;28.90;48.20
79760;DHT22;70512;42.122;24.732;2023-07-31T08:49:12;29.10;47.70
79760;DHT22;70512;42.122;24.732;2023-07-31T08:51:40;29.40;47.50
79760;DHT22;70512;42.122;24.732;2023-07-31T08:54:08;29.60;45.70
79760;DHT22;70512;42.122;24.732;2023-07-31T08:56:35;29.80;45.80
79760;DHT22;70512;42.122;24.732;2023-07-31T08:59:03;30.10;45.90
79760;DHT22;70512;42.122;24.732;2023-07-31T09:01:30;30.30;45.00
79760;DHT22;70512;42.122;24.732;2023-07-31T09:03:59;30.30;44.70
79760;DHT22;70512;42.122;24.732;2023-07-31T09:06:26;30.00;44.60
79760;DHT22;70512;42.122;24.732;2023-07-31T09:08:55;29.80;44.70
79760;DHT22;70512;42.122;24.732;2023-07-31T09:11:22;29.70;45.10
79760;DHT22;70512;42.122;24.732;2023-07-31T09:13:50;29.70;44.80
79760;DHT22;70512;42.122;24.732;2023-07-31T09:16:18;29.80;44.00
79760;DHT22;70512;42.122;24.732;2023-07-31T09:18:56;29.90;44.20
79760;DHT22;70512;42.122;24.732;2023-07-31T09:21:19;30.10;43.50
79760;DHT22;70512;42.122;24.732;2023-07-31T09:23:46;30.20;43.30
79760;DHT22;70512;42.122;24.732;2023-07-31T09:26:31;30.50;42.70
79760;DHT22;70512;42.122;24.732;2023-07-31T09:28:59;30.80;42.30
79760;DHT22;70512;42.122;24.732;2023-07-31T09:31:38;31.00;41.90
79760;DHT22;70512;42.122;24.732;2023-07-31T09:34:00;31.10;40.70
79760;DHT22;70512;42.122;24.732;2023-07-31T09:36:30;31.00;40.70
79760;DHT22;70512;42.122;24.732;2023-07-31T09:39:03;30.90;41.00
79760;DHT22;70512;42.122;24.732;2023-07-31T09:41:31;30.70;41.10
79760;DHT22;70512;42.122;24.732;2023-07-31T09:43:57;30.80;41.10
79760;DHT22;70512;42.122;24.732;2023-07-31T09:46:26;30.90;41.30
79760;DHT22;70512;42.122;24.732;2023-07-31T09:48:53;31.20;39.90
79760;DHT22;70512;42.122;24.732;2023-07-31T09:51:26;31.40;39.70
79760;DHT22;70512;42.122;24.732;2023-07-31T09:53:53;31.50;39.10
79760;DHT22;70512;42.122;24.732;2023-07-31T09:56:20;31.50;39.10
79760;DHT22;70512;42.122;24.732;2023-07-31T09:58:48;31.60;39.00
79760;DHT22;70512;42.122;24.732;2023-07-31T10:01:15;31.70;38.50
79760;DHT22;70512;42.122;24.732;2023-07-31T10:03:42;32.10;38.20
79760;DHT22;70512;42.122;24.732;2023-07-31T10:06:10;32.30;37.90
79760;DHT22;70512;42.122;24.732;2023-07-31T10:08:38;32.30;38.10
79760;DHT22;70512;42.122;24.732;2023-07-31T10:11:05;31.80;38.70
79760;DHT22;70512;42.122;24.732;2023-07-31T10:13:34;31.70;39.00
79760;DHT22;70512;42.122;24.732;2023-07-31T10:16:01;31.40;38.70
79760;DHT22;70512;42.122;24.732;2023-07-31T10:18:28;31.40;39.40
79760;DHT22;70512;42.122;24.732;2023-07-31T10:20:56;31.50;39.90
79760;DHT22;70512;42.122;24.732;2023-07-31T10:23:23;31.60;40.10
79760;DHT22;70512;42.122;24.732;2023-07-31T10:25:52;31.70;38.90
79760;DHT22;70512;42.122;24.732;2023-07-31T10:28:20;32.00;38.30
79760;DHT22;70512;42.122;24.732;2023-07-31T10:30:47;31.90;37.80
79760;DHT22;70512;42.122;24.732;2023-07-31T10:33:16;31.90;38.10
79760;DHT22;70512;42.122;24.732;2023-07-31T10:35:43;32.00;37.60
79760;DHT22;70512;42.122;24.732;2023-07-31T10:38:11;32.00;38.00
79760;DHT22;70512;42.122;24.732;2023-07-31T10:40:38;32.00;38.20
79760;DHT22;70512;42.122;24.732;2023-07-31T10:43:05;32.10;38.40
79760;DHT22;70512;42.122;24.732;2023-07-31T10:45:35;32.20;37.90
79760;DHT22;70512;42.122;24.732;2023-07-31T10:48:05;32.40;37.20
79760;DHT22;70512;42.122;24.732;2023-07-31T10:50:37;32.60;36.80
79760;DHT22;70512;42.122;24.732;2023-07-31T10:53:01;33.00;36.80
79760;DHT22;70512;42.122;24.732;2023-07-31T10:55:38;33.30;35.70
79760;DHT22;70512;42.122;24.732;2023-07-31T11:00:38;33.70;33.80
79760;DHT22;70512;42.122;24.732;2023-07-31T11:03:06;34.20;33.00
79760;DHT22;70512;42.122;24.732;2023-07-31T11:05:55;35.30;31.70
79760;DHT22;70512;42.122;24.732;2023-07-31T11:08:25;36.60;29.30
79760;DHT22;70512;42.122;24.732;2023-07-31T11:13:30;37.90;28.30
79760;DHT22;70512;42.122;24.732;2023-07-31T11:15:57;39.80;26.70
79760;DHT22;70512;42.122;24.732;2023-07-31T11:18:24;41.30;24.60
79760;DHT22;70512;42.122;24.732;2023-07-31T11:20:52;42.60;23.80
79760;DHT22;70512;42.122;24.732;2023-07-31T11:23:20;41.70;25.50
79760;DHT22;70512;42.122;24.732;2023-07-31T11:25:47;40.70;27.20
79760;DHT22;70512;42.122;24.732;2023-07-31T11:28:14;39.20;28.80
79760;DHT22;70512;42.122;24.732;2023-07-31T11:30:42;37.80;30.40
79760;DHT22;70512;42.122;24.732;2023-07-31T11:33:10;36.90;32.20
79760;DHT22;70512;42.122;24.732;2023-07-31T11:35:47;36.60;33.00
79760;DHT22;70512;42.122;24.732;2023-07-31T11:38:22;38.50;30.70
79760;DHT22;70512;42.122;24.732;2023-07-31T11:40:51;40.70;28.10
79760;DHT22;70512;42.122;24.732;2023-07-31T11:43:18;42.00;26.30
79760;DHT22;70512;42.122;24.732;2023-07-31T11:45:51;43.30;24.90
79760;DHT22;70512;42.122;24.732;2023-07-31T11:51:01;45.50;23.10
79760;DHT22;70512;42.122;24.732;2023-07-31T11:55:57;44.10;23.70
79760;DHT22;70512;42.122;24.732;2023-07-31T11:58:24;44.60;23.60
79760;DHT22;70512;42.122;24.732;2023-07-31T12:00:52;45.40;23.30
79760;DHT22;70512;42.122;24.732;2023-07-31T12:03:19;45.80;22.30
79760;DHT22;70512;42.122;24.732;2023-07-31T12:05:47;44.50;23.10
79760;DHT22;70512;42.122;24.732;2023-07-31T12:08:14;43.70;23.80
79760;DHT22;70512;42.122;24.732;2023-07-31T12:10:42;43.60;23.60
79760;DHT22;70512;42.122;24.732;2023-07-31T12:13:10;43.80;23.70
79760;DHT22;70512;42.122;24.732;2023-07-31T12:15:40;45.00;23.00
79760;DHT22;70512;42.122;24.732;2023-07-31T12:18:11;46.40;22.00
79760;DHT22;70512;42.122;24.732;2023-07-31T12:20:42;47.00;21.00
79760;DHT22;70512;42.122;24.732;2023-07-31T12:23:13;48.20;20.80
79760;DHT22;70512;42.122;24.732;2023-07-31T12:25:41;48.20;20.10
79760;DHT22;70512;42.122;24.732;2023-07-31T12:28:08;49.10;19.80
79760;DHT22;70512;42.122;24.732;2023-07-31T12:30:37;49.40;19.50
79760;DHT22;70512;42.122;24.732;2023-07-31T12:33:14;50.70;18.70
79760;DHT22;70512;42.122;24.732;2023-07-31T12:35:43;52.10;17.50
79760;DHT22;70512;42.122;24.732;2023-07-31T12:38:11;53.20;16.90
79760;DHT22;70512;42.122;24.732;2023-07-31T12:40:39;52.50;16.60
79760;DHT22;70512;42.122;24.732;2023-07-31T12:43:07;51.60;15.90
79760;DHT22;70512;42.122;24.732;2023-07-31T12:45:34;51.60;15.60
79760;DHT22;70512;42.122;24.732;2023-07-31T12:48:02;51.80;15.60
79760;DHT22;70512;42.122;24.732;2023-07-31T12:50:29;52.50;15.10
79760;DHT22;70512;42.122;24.732;2023-07-31T12:52:56;52.10;15.70
79760;DHT22;70512;42.122;24.732;2023-07-31T12:55:23;52.70;15.20
79760;DHT22;70512;42.122;24.732;2023-07-31T12:57:50;52.70;15.10
79760;DHT22;70512;42.122;24.732;2023-07-31T13:00:17;52.40;15.20
79760;DHT22;70512;42.122;24.732;2023-07-31T13:02:44;52.80;15.20
79760;DHT22;70512;42.122;24.732;2023-07-31T13:05:11;50.30;15.60
79760;DHT22;70512;42.122;24.732;2023-07-31T13:07:39;48.70;17.00
79760;DHT22;70512;42.122;24.732;2023-07-31T13:10:06;47.50;17.70
79760;DHT22;70512;42.122;24.732;2023-07-31T13:12:34;46.00;19.60
79760;DHT22;70512;42.122;24.732;2023-07-31T13:15:01;44.00;21.50
79760;DHT22;70512;42.122;24.732;2023-07-31T13:17:28;43.10;22.10
79760;DHT22;70512;42.122;24.732;2023-07-31T13:19:54;42.40;24.30
79760;DHT22;70512;42.122;24.732;2023-07-31T13:22:22;42.00;25.40
79760;DHT22;70512;42.122;24.732;2023-07-31T13:24:48;41.60;26.00
79760;DHT22;70512;42.122;24.732;2023-07-31T13:27:15;41.40;26.70
79760;DHT22;70512;42.122;24.732;2023-07-31T13:29:44;41.20;26.60
79760;DHT22;70512;42.122;24.732;2023-07-31T13:32:11;41.70;26.40
79760;DHT22;70512;42.122;24.732;2023-07-31T13:34:38;42.80;24.70
79760;DHT22;70512;42.122;24.732;2023-07-31T13:37:05;44.10;23.80
79760;DHT22;70512;42.122;24.732;2023-07-31T13:39:32;45.00;22.40
79760;DHT22;70512;42.122;24.732;2023-07-31T13:41:59;45.90;21.80
79760;DHT22;70512;42.122;24.732;2023-07-31T13:44:26;46.30;21.20
79760;DHT22;70512;42.122;24.732;2023-07-31T13:46:53;46.30;21.40
79760;DHT22;70512;42.122;24.732;2023-07-31T13:49:20;46.10;21.80
79760;DHT22;70512;42.122;24.732;2023-07-31T13:51:47;45.50;21.60
79760;DHT22;70512;42.122;24.732;2023-07-31T13:54:14;44.60;22.50
79760;DHT22;70512;42.122;24.732;2023-07-31T13:56:42;43.70;23.20
79760;DHT22;70512;42.122;24.732;2023-07-31T13:59:09;42.60;24.00
79760;DHT22;70512;42.122;24.732;2023-07-31T14:01:37;41.70;25.10
79760;DHT22;70512;42.122;24.732;2023-07-31T14:04:04;40.70;25.80
79760;DHT22;70512;42.122;24.732;2023-07-31T14:06:31;40.10;26.80
79760;DHT22;70512;42.122;24.732;2023-07-31T14:08:57;39.70;27.50
79760;DHT22;70512;42.122;24.732;2023-07-31T14:11:24;39.50;27.30
79760;DHT22;70512;42.122;24.732;2023-07-31T14:13:51;39.80;26.90
79760;DHT22;70512;42.122;24.732;2023-07-31T14:16:18;39.80;26.60
79760;DHT22;70512;42.122;24.732;2023-07-31T14:18:45;39.50;26.90
79760;DHT22;70512;42.122;24.732;2023-07-31T14:21:12;39.20;27.20
79760;DHT22;70512;42.122;24.732;2023-07-31T14:23:39;38.70;27.90
79760;DHT22;70512;42.122;24.732;2023-07-31T14:26:07;38.40;28.30
79760;DHT22;70512;42.122;24.732;2023-07-31T14:28:34;39.60;27.50
79760;DHT22;70512;42.122;24.732;2023-07-31T14:31:01;40.90;25.50
79760;DHT22;70512;42.122;24.732;2023-07-31T14:33:28;42.30;24.10
79760;DHT22;70512;42.122;24.732;2023-07-31T14:35:55;43.50;23.30
79760;DHT22;70512;42.122;24.732;2023-07-31T14:38:22;44.90;22.20
79760;DHT22;70512;42.122;24.732;2023-07-31T14:40:48;46.10;21.40
79760;DHT22;70512;42.122;24.732;2023-07-31T14:43:15;47.20;20.60
79760;DHT22;70512;42.122;24.732;2023-07-31T14:45:42;48.00;19.90
79760;DHT22;70512;42.122;24.732;2023-07-31T14:48:09;48.00;19.60
79760;DHT22;70512;42.122;24.732;2023-07-31T14:50:36;48.30;19.10
79760;DHT22;70512;42.122;24.732;2023-07-31T14:53:03;48.50;19.10
79760;DHT22;70512;42.122;24.732;2023-07-31T14:55:30;47.40;19.80
79760;DHT22;70512;42.122;24.732;2023-07-31T14:57:57;46.00;21.00
79760;DHT22;70512;42.122;24.732;2023-07-31T15:00:24;46.40;20.80
79760;DHT22;70512;42.122;24.732;2023-07-31T15:02:52;46.40;21.00
79760;DHT22;70512;42.122;24.732;2023-07-31T15:05:19;46.10;21.30
79760;DHT22;70512;42.122;24.732;2023-07-31T15:07:46;45.50;21.70
79760;DHT22;70512;42.122;24.732;2023-07-31T15:10:13;45.30;22.20
79760;DHT22;70512;42.122;24.732;2023-07-31T15:12:40;45.50;22.20
79760;DHT22;70512;42.122;24.732;2023-07-31T15:15:08;45.30;22.10
79760;DHT22;70512;42.122;24.732;2023-07-31T15:17:35;45.10;22.20
79760;DHT22;70512;42.122;24.732;2023-07-31T15:20:02;44.90;22.30
79760;DHT22;70512;42.122;24.732;2023-07-31T15:22:30;45.20;22.00
79760;DHT22;70512;42.122;24.732;2023-07-31T15:24:56;44.60;22.40
79760;DHT22;70512;42.122;24.732;2023-07-31T15:27:23;43.50;23.50
79760;DHT22;70512;42.122;24.732;2023-07-31T15:29:50;42.30;24.40
79760;DHT22;70512;42.122;24.732;2023-07-31T15:32:17;41.00;25.40